Time;durP1;ratioP1;P1;durP2;ratioP2;P2;SDS_P1;SDS_P2;PMS_P1;PMS_P2;Temp;Humidity;BMP_temperature;BMP_pressure;BME280_temperature;BME280_humidity;BME280_pressure;Samples;Min_cycle;Max_cycle;Signal;HPM_P1;HPM_P2
2022/07/31 00:01:22;;;;;;;7.80;7.20;;;21.40;81.10;;;;;;5001162;28;20448;-81
2022/07/31 00:03:49;;;;;;;7.30;6.70;;;21.40;81.50;;;;;;5001404;28;20490;-81
2022/07/31 00:06:18;;;;;;;8.23;7.60;;;21.30;82.80;;;;;;5000674;28;21277;-81
2022/07/31 00:08:44;;;;;;;9.00;7.03;;;21.30;82.30;;;;;;5000202;28;20454;-82
2022/07/31 00:11:11;;;;;;;7.90;7.10;;;21.20;82.80;;;;;;5000149;28;20448;-82
2022/07/31 00:13:39;;;;;;;8.20;7.03;;;21.20;83.60;;;;;;4999943;28;20460;-81
2022/07/31 00:16:06;;;;;;;7.63;6.93;;;21.20;84.30;;;;;;4999124;28;20842;-81
2022/07/31 00:18:33;;;;;;;10.13;8.93;;;21.20;85.00;;;;;;4998894;28;20436;-81
2022/07/31 00:21:01;;;;;;;7.67;6.93;;;21.10;85.60;;;;;;4996895;28;20478;-82
2022/07/31 00:23:27;;;;;;;7.77;7.17;;;21.10;85.90;;;;;;4999235;28;20467;-82
2022/07/31 00:25:54;;;;;;;9.00;8.13;;;21.00;86.60;;;;;;4998941;28;20996;-82
2022/07/31 00:28:21;;;;;;;10.77;8.10;;;21.10;86.40;;;;;;5000511;28;20459;-82
2022/07/31 00:30:49;;;;;;;8.47;7.47;;;21.00;87.10;;;;;;5001885;28;20440;-82
2022/07/31 00:33:16;;;;;;;7.27;6.67;;;20.90;87.90;;;;;;4999964;28;20514;-81
2022/07/31 00:35:42;;;;;;;9.13;7.63;;;20.80;88.00;;;;;;5000488;28;20443;-81
2022/07/31 00:38:10;;;;;;;7.80;6.97;;;20.70;89.40;;;;;;5004211;28;20439;-81
2022/07/31 00:40:37;;;;;;;9.57;7.80;;;20.70;90.20;;;;;;5013583;28;20432;-81
2022/07/31 00:43:03;;;;;;;11.07;7.60;;;20.70;90.70;;;;;;5012582;28;20892;-82
2022/07/31 00:45:30;;;;;;;8.63;7.73;;;20.70;91.10;;;;;;5011585;28;20443;-82
2022/07/31 00:47:58;;;;;;;7.83;7.23;;;20.60;91.50;;;;;;5011817;28;20482;-82
2022/07/31 00:50:25;;;;;;;8.63;7.37;;;20.70;91.90;;;;;;5003309;28;20447;-82
2022/07/31 00:52:52;;;;;;;8.37;7.57;;;20.60;92.20;;;;;;5002660;28;20494;-82
2022/07/31 00:55:19;;;;;;;7.77;7.00;;;20.70;92.40;;;;;;5001460;28;20459;-83
2022/07/31 00:57:46;;;;;;;8.13;7.53;;;20.70;92.90;;;;;;5006991;28;20436;-82
2022/07/31 01:00:14;;;;;;;8.30;7.60;;;20.70;92.60;;;;;;5010539;28;20475;-82
2022/07/31 01:02:41;;;;;;;7.80;7.10;;;20.60;93.00;;;;;;5009091;28;20460;-80
2022/07/31 01:05:09;;;;;;;8.90;8.10;;;20.60;93.70;;;;;;5010137;28;20428;-81
2022/07/31 01:07:36;;;;;;;8.00;7.40;;;20.50;94.00;;;;;;5008236;28;20479;-83
2022/07/31 01:10:07;;;;;;;8.50;7.80;;;20.40;94.50;;;;;;5009766;28;20444;-82
2022/07/31 01:12:41;;;;;;;8.57;7.67;;;20.40;95.10;;;;;;5003688;28;20464;-82
2022/07/31 01:15:11;;;;;;;8.43;7.53;;;20.30;95.40;;;;;;4997809;28;20830;-82
2022/07/31 01:17:39;;;;;;;7.13;6.60;;;20.30;96.40;;;;;;5001006;28;20439;-82
2022/07/31 01:20:10;;;;;;;7.73;7.03;;;20.30;96.80;;;;;;4998712;28;20443;-82
2022/07/31 01:22:58;;;;;;;11.10;8.87;;;20.20;97.20;;;;;;4998406;28;20478;-82
2022/07/31 01:25:37;;;;;;;8.77;7.93;;;20.10;97.70;;;;;;4997911;28;20482;-82
2022/07/31 01:28:24;;;;;;;12.73;8.83;;;20.00;98.50;;;;;;5002063;28;20483;-82
2022/07/31 01:30:56;;;;;;;8.20;7.50;;;19.90;99.00;;;;;;5007325;28;20444;-82
2022/07/31 01:33:30;;;;;;;8.73;8.03;;;19.90;99.90;;;;;;5001086;28;20471;-81
2022/07/31 01:36:06;;;;;;;9.33;8.37;;;19.80;99.90;;;;;;5000628;28;20494;-81
2022/07/31 01:38:36;;;;;;;8.73;7.43;;;19.80;99.90;;;;;;4997760;28;20455;-82
2022/07/31 01:41:07;;;;;;;8.77;7.87;;;19.80;99.90;;;;;;4996275;28;20446;-82
2022/07/31 01:43:39;;;;;;;8.40;7.60;;;19.80;99.90;;;;;;4996239;28;20463;-82
2022/07/31 01:46:14;;;;;;;8.57;7.87;;;19.60;99.90;;;;;;4998551;28;20452;-82
2022/07/31 01:48:41;;;;;;;8.47;7.73;;;19.60;99.90;;;;;;4997920;28;20452;-82
2022/07/31 01:51:10;;;;;;;9.70;9.00;;;19.50;99.90;;;;;;4997706;28;20800;-81
2022/07/31 01:53:38;;;;;;;9.33;7.43;;;19.50;99.90;;;;;;5001240;28;20459;-81
2022/07/31 01:56:06;;;;;;;7.93;7.33;;;19.50;99.90;;;;;;5011093;28;20443;-81
2022/07/31 01:58:35;;;;;;;8.93;8.13;;;19.40;99.90;;;;;;5001147;28;20456;-81
2022/07/31 02:01:04;;;;;;;9.37;8.57;;;19.40;99.90;;;;;;5004132;28;20439;-81
2022/07/31 02:03:33;;;;;;;8.87;8.00;;;19.30;99.90;;;;;;4998361;28;20803;-81
2022/07/31 02:06:02;;;;;;;9.10;8.30;;;19.20;99.90;;;;;;4994348;28;20436;-81
2022/07/31 02:08:31;;;;;;;9.60;8.60;;;19.20;99.90;;;;;;4997487;28;20431;-81
2022/07/31 02:11:00;;;;;;;8.47;7.67;;;19.10;99.90;;;;;;4996782;28;20431;-81
2022/07/31 02:13:28;;;;;;;8.23;7.50;;;19.10;99.90;;;;;;4997374;28;20910;-81
2022/07/31 02:15:56;;;;;;;9.00;8.20;;;19.10;99.90;;;;;;4996937;28;20440;-81
2022/07/31 02:18:24;;;;;;;8.97;8.23;;;19.10;99.90;;;;;;4997271;28;20853;-81
2022/07/31 02:20:53;;;;;;;8.40;7.60;;;19.10;99.90;;;;;;4998535;28;20509;-82
2022/07/31 02:23:19;;;;;;;9.17;8.20;;;19.00;99.90;;;;;;4997806;28;20471;-81
2022/07/31 02:25:47;;;;;;;8.37;7.53;;;18.90;99.90;;;;;;4996110;28;20435;-82
2022/07/31 02:28:19;;;;;;;9.20;8.50;;;18.90;99.90;;;;;;4996429;28;20612;-82
2022/07/31 02:30:47;;;;;;;9.13;8.33;;;18.80;99.90;;;;;;4994696;28;20475;-82
2022/07/31 02:33:21;;;;;;;9.43;8.63;;;18.80;99.90;;;;;;4996186;28;20455;-82
2022/07/31 02:35:50;;;;;;;9.60;8.90;;;18.80;99.90;;;;;;5000707;28;20435;-83
2022/07/31 02:38:21;;;;;;;8.57;7.73;;;18.80;99.90;;;;;;5014358;28;20439;-80
2022/07/31 02:40:48;;;;;;;9.47;8.40;;;18.80;99.90;;;;;;5009910;28;20581;-80
2022/07/31 02:43:16;;;;;;;10.10;8.50;;;18.90;99.90;;;;;;5005262;28;20467;-80
2022/07/31 02:45:43;;;;;;;9.00;8.27;;;18.80;99.90;;;;;;4999364;28;20444;-80
2022/07/31 02:48:10;;;;;;;7.27;6.77;;;18.80;99.90;;;;;;4999030;28;20506;-80
2022/07/31 02:50:38;;;;;;;9.70;8.80;;;18.90;99.90;;;;;;4999921;28;20447;-80
2022/07/31 02:53:05;;;;;;;8.67;8.07;;;18.90;99.90;;;;;;4999441;28;20491;-80
2022/07/31 02:55:34;;;;;;;9.40;8.60;;;18.90;99.90;;;;;;4999020;28;20853;-80
2022/07/31 02:58:02;;;;;;;9.97;9.27;;;18.80;99.90;;;;;;4997017;28;20486;-80
2022/07/31 03:00:29;;;;;;;8.97;8.20;;;18.70;99.90;;;;;;4999297;28;20471;-80
2022/07/31 03:02:56;;;;;;;8.10;7.50;;;18.70;99.90;;;;;;4997206;28;20466;-79
2022/07/31 03:05:23;;;;;;;8.87;8.03;;;18.70;99.90;;;;;;4998802;28;20459;-82
2022/07/31 03:07:50;;;;;;;8.33;7.73;;;18.70;99.90;;;;;;5001794;28;20855;-80
2022/07/31 03:10:16;;;;;;;8.63;7.93;;;18.60;99.90;;;;;;5003972;28;20423;-82
2022/07/31 03:12:47;;;;;;;8.30;7.70;;;18.60;99.90;;;;;;5013694;28;20474;-82
2022/07/31 03:15:16;;;;;;;9.27;8.50;;;18.60;99.90;;;;;;5004279;28;21161;-81
2022/07/31 03:17:45;;;;;;;9.17;8.47;;;18.60;99.90;;;;;;4999162;28;20436;-81
2022/07/31 03:20:13;;;;;;;9.97;8.93;;;18.60;99.90;;;;;;4998997;28;20440;-81
2022/07/31 03:22:41;;;;;;;8.80;8.10;;;18.70;99.90;;;;;;4999087;28;20474;-81
2022/07/31 03:25:09;;;;;;;7.37;6.67;;;18.60;99.90;;;;;;5002003;28;20466;-80
2022/07/31 03:27:36;;;;;;;8.73;8.03;;;18.60;99.90;;;;;;5001002;28;21058;-80
2022/07/31 03:30:06;;;;;;;8.10;7.30;;;18.50;99.90;;;;;;4998562;28;20446;-81
2022/07/31 03:32:34;;;;;;;7.47;6.97;;;18.50;99.90;;;;;;4996309;28;20483;-81
2022/07/31 03:35:01;;;;;;;7.87;7.37;;;18.50;99.90;;;;;;4997800;28;20443;-81
2022/07/31 03:37:27;;;;;;;9.20;8.30;;;18.40;99.90;;;;;;4998222;28;20486;-81
2022/07/31 03:39:54;;;;;;;7.87;7.27;;;18.40;99.90;;;;;;4998227;28;20442;-81
2022/07/31 03:42:21;;;;;;;8.97;8.03;;;18.50;99.90;;;;;;4998302;28;20514;-81
2022/07/31 03:44:49;;;;;;;8.47;7.63;;;18.50;99.90;;;;;;4998296;28;20462;-81
2022/07/31 03:47:17;;;;;;;9.33;7.97;;;18.40;99.90;;;;;;4998214;28;20533;-81
2022/07/31 03:49:44;;;;;;;7.67;6.97;;;18.40;99.90;;;;;;4998463;28;20436;-81
2022/07/31 03:52:11;;;;;;;8.37;7.33;;;18.50;99.90;;;;;;4999460;28;20448;-81
2022/07/31 03:54:38;;;;;;;8.23;7.63;;;18.50;99.90;;;;;;5009872;28;20435;-81
2022/07/31 03:57:05;;;;;;;8.93;8.23;;;18.40;99.90;;;;;;5014597;28;20455;-80
2022/07/31 03:59:34;;;;;;;9.93;8.80;;;18.40;99.90;;;;;;5016698;28;20441;-81
2022/07/31 04:02:01;;;;;;;8.57;7.77;;;18.40;99.90;;;;;;5003553;28;20439;-81
2022/07/31 04:04:29;;;;;;;7.90;7.17;;;18.30;99.90;;;;;;5000198;28;20475;-81
2022/07/31 04:06:56;;;;;;;7.77;7.17;;;18.40;99.90;;;;;;4999132;28;20451;-81
2022/07/31 04:09:23;;;;;;;8.07;7.33;;;18.40;99.90;;;;;;4998682;28;20440;-81
2022/07/31 04:11:49;;;;;;;8.50;7.77;;;18.30;99.90;;;;;;4999012;28;20452;-81
2022/07/31 04:14:16;;;;;;;8.13;7.53;;;18.30;99.90;;;;;;5001246;28;20490;-81
2022/07/31 04:16:43;;;;;;;8.40;7.70;;;18.30;99.90;;;;;;5007431;28;20439;-81
2022/07/31 04:19:10;;;;;;;8.43;7.70;;;18.30;99.90;;;;;;5007393;28;20443;-81
2022/07/31 04:21:38;;;;;;;9.07;8.37;;;18.30;99.90;;;;;;4999915;28;20498;-81
2022/07/31 04:24:06;;;;;;;8.03;7.43;;;18.20;99.90;;;;;;4996902;28;20467;-81
2022/07/31 04:26:33;;;;;;;8.03;7.33;;;18.20;99.90;;;;;;4997958;28;20443;-81
2022/07/31 04:29:00;;;;;;;8.97;8.17;;;18.20;99.90;;;;;;4998179;28;20988;-81
2022/07/31 04:31:26;;;;;;;9.00;8.30;;;18.20;99.90;;;;;;5011693;28;20412;-80
2022/07/31 04:33:53;;;;;;;9.17;8.40;;;18.20;99.90;;;;;;5002997;28;20470;-81
2022/07/31 04:36:20;;;;;;;9.20;8.07;;;18.20;99.90;;;;;;4999410;28;20502;-80
2022/07/31 04:38:48;;;;;;;8.40;7.57;;;18.20;99.90;;;;;;4997973;28;20435;-80
2022/07/31 04:41:16;;;;;;;8.00;7.40;;;18.20;99.90;;;;;;4996979;28;20479;-81
2022/07/31 04:43:43;;;;;;;7.60;7.00;;;18.20;99.90;;;;;;4997387;28;20489;-81
2022/07/31 04:46:10;;;;;;;8.10;7.50;;;18.20;99.90;;;;;;4996708;28;20976;-81
2022/07/31 04:48:37;;;;;;;8.93;8.17;;;18.30;99.90;;;;;;4997626;28;20483;-81
2022/07/31 04:51:04;;;;;;;7.67;7.07;;;18.30;99.90;;;;;;4996418;28;20439;-81
2022/07/31 04:53:30;;;;;;;8.30;7.50;;;18.40;99.90;;;;;;4994184;28;20467;-81
2022/07/31 04:58:43;;;;;;;7.87;7.20;;;18.60;99.90;;;;;;4996940;28;20463;-81
2022/07/31 05:01:10;;;;;;;7.53;6.93;;;18.80;99.90;;;;;;4996963;28;20447;-81
2022/07/31 05:03:36;;;;;;;7.63;7.00;;;18.80;99.90;;;;;;4996474;28;20471;-81
2022/07/31 05:06:10;;;;;;;8.40;7.27;;;18.90;99.90;;;;;;4996171;28;20890;-81
2022/07/31 05:08:36;;;;;;;7.63;7.03;;;19.00;99.90;;;;;;4995608;28;20574;-80
2022/07/31 05:11:22;;;;;;;8.37;7.70;;;19.10;99.90;;;;;;4997417;28;20439;-81
2022/07/31 05:13:50;;;;;;;7.00;6.47;;;19.30;99.90;;;;;;4995327;28;20537;-81
2022/07/31 05:16:17;;;;;;;6.77;6.17;;;19.50;99.90;;;;;;4996727;28;20447;-81
2022/07/31 05:18:44;;;;;;;8.60;7.33;;;20.00;99.90;;;;;;4997301;28;20474;-81
2022/07/31 05:21:11;;;;;;;7.03;6.43;;;20.50;99.90;;;;;;4997459;28;20436;-81
2022/07/31 05:23:38;;;;;;;6.77;5.90;;;20.90;99.90;;;;;;4997308;28;20498;-81
2022/07/31 05:26:06;;;;;;;6.63;6.10;;;21.30;99.90;;;;;;4999003;28;20469;-81
2022/07/31 05:28:33;;;;;;;7.30;6.73;;;21.50;99.00;;;;;;4998788;28;20479;-81
2022/07/31 05:31:00;;;;;;;7.10;6.50;;;21.60;97.90;;;;;;5002079;28;20937;-81
2022/07/31 05:33:27;;;;;;;6.27;5.77;;;21.40;98.10;;;;;;5010159;28;20474;-81
2022/07/31 05:35:54;;;;;;;7.53;6.00;;;21.20;98.90;;;;;;5012214;28;20436;-81
2022/07/31 05:38:20;;;;;;;5.80;5.40;;;21.10;98.80;;;;;;5004904;28;20474;-81
2022/07/31 05:40:47;;;;;;;6.47;5.90;;;21.00;98.70;;;;;;5002092;28;20444;-81
2022/07/31 05:43:15;;;;;;;6.77;6.17;;;20.80;98.60;;;;;;5001393;28;20484;-81
2022/07/31 05:45:42;;;;;;;6.60;6.10;;;20.70;98.90;;;;;;4999602;28;20450;-81
2022/07/31 05:48:09;;;;;;;7.33;6.70;;;20.60;98.90;;;;;;5000590;28;20475;-81
2022/07/31 05:50:35;;;;;;;6.03;5.63;;;20.50;99.50;;;;;;5001509;28;20443;-81
2022/07/31 05:53:02;;;;;;;6.70;6.10;;;20.30;99.90;;;;;;4997845;28;20463;-82
2022/07/31 05:55:29;;;;;;;6.20;5.70;;;20.40;99.90;;;;;;5004375;28;20455;-81
2022/07/31 05:57:55;;;;;;;6.10;5.57;;;20.40;99.90;;;;;;5009964;28;20435;-81
2022/07/31 06:00:23;;;;;;;7.03;6.33;;;20.50;99.90;;;;;;5007465;28;20439;-81
2022/07/31 06:02:50;;;;;;;7.40;5.67;;;20.50;99.90;;;;;;5002814;28;20467;-81
2022/07/31 06:05:17;;;;;;;5.90;5.40;;;20.50;99.90;;;;;;4995998;28;20432;-81
2022/07/31 06:07:45;;;;;;;5.97;5.37;;;20.50;99.70;;;;;;4996655;28;20482;-81
2022/07/31 06:10:11;;;;;;;5.70;5.20;;;20.60;99.90;;;;;;4994514;28;20450;-81
2022/07/31 06:12:38;;;;;;;5.67;5.27;;;20.60;99.90;;;;;;4996096;28;20979;-81
2022/07/31 06:15:06;;;;;;;8.07;6.97;;;20.70;99.90;;;;;;4996826;28;20466;-81
2022/07/31 06:17:34;;;;;;;5.63;5.10;;;20.70;99.60;;;;;;5014438;28;20419;-81
2022/07/31 06:20:00;;;;;;;6.10;5.50;;;20.80;99.60;;;;;;5016211;28;20443;-81
2022/07/31 06:22:27;;;;;;;8.73;5.57;;;20.90;99.30;;;;;;5013372;28;20443;-80
2022/07/31 06:24:53;;;;;;;6.80;6.10;;;20.90;99.30;;;;;;5015828;28;20439;-81
2022/07/31 06:27:21;;;;;;;5.90;5.50;;;20.80;99.20;;;;;;5002554;28;20455;-81
2022/07/31 06:29:47;;;;;;;6.80;6.00;;;20.90;99.10;;;;;;5000885;28;20507;-81
2022/07/31 06:32:14;;;;;;;6.57;6.07;;;20.90;98.70;;;;;;5003015;28;20536;-81
2022/07/31 06:34:43;;;;;;;7.00;5.50;;;21.00;98.90;;;;;;4998855;28;20498;-81
2022/07/31 06:37:10;;;;;;;8.70;6.20;;;21.10;98.40;;;;;;5004552;28;20444;-81
2022/07/31 06:39:37;;;;;;;5.27;4.77;;;21.20;98.30;;;;;;5004205;28;20436;-81
2022/07/31 06:42:04;;;;;;;5.97;5.37;;;21.50;98.00;;;;;;5009202;28;20443;-81
2022/07/31 06:44:32;;;;;;;6.70;6.00;;;21.60;97.30;;;;;;4999862;28;20439;-81
2022/07/31 06:46:59;;;;;;;6.87;5.40;;;21.70;97.10;;;;;;5000590;28;20478;-82
2022/07/31 06:49:26;;;;;;;6.30;5.53;;;21.80;96.50;;;;;;4999885;28;20510;-82
2022/07/31 06:51:54;;;;;;;6.10;5.57;;;21.90;95.90;;;;;;5000303;28;20431;-81
2022/07/31 06:54:21;;;;;;;5.50;5.00;;;21.90;95.70;;;;;;5000466;28;20471;-81
2022/07/31 06:56:48;;;;;;;5.63;5.17;;;21.80;96.40;;;;;;5002758;28;20451;-82
2022/07/31 06:59:14;;;;;;;9.10;5.57;;;21.90;96.20;;;;;;5000286;28;20471;-82
2022/07/31 07:01:41;;;;;;;4.93;4.50;;;22.00;96.00;;;;;;5000476;28;20439;-82
2022/07/31 07:04:08;;;;;;;6.80;6.23;;;21.90;95.80;;;;;;4999800;28;20459;-82
2022/07/31 07:06:34;;;;;;;6.50;5.20;;;22.00;95.50;;;;;;4999116;28;20444;-82
2022/07/31 07:09:03;;;;;;;6.70;5.07;;;22.30;95.10;;;;;;4998471;28;20475;-82
2022/07/31 07:11:29;;;;;;;5.70;5.20;;;22.60;94.30;;;;;;5001146;28;20518;-82
2022/07/31 07:13:56;;;;;;;6.20;4.90;;;22.80;93.40;;;;;;4997882;28;20959;-82
2022/07/31 07:16:22;;;;;;;5.90;5.33;;;23.10;93.10;;;;;;4999645;28;20443;-82
2022/07/31 07:18:49;;;;;;;5.17;4.70;;;23.10;92.60;;;;;;4999233;28;20466;-82
2022/07/31 07:21:16;;;;;;;6.20;5.70;;;22.90;92.60;;;;;;4997788;28;20448;-82
2022/07/31 07:23:43;;;;;;;5.60;4.87;;;22.80;93.00;;;;;;4999827;28;20525;-82
2022/07/31 07:26:11;;;;;;;6.20;5.60;;;22.90;92.90;;;;;;5000721;28;20448;-82
2022/07/31 07:28:38;;;;;;;5.17;4.70;;;23.30;92.10;;;;;;4998878;28;20479;-81
2022/07/31 07:31:06;;;;;;;5.40;4.90;;;23.60;91.50;;;;;;4998622;28;20440;-81
2022/07/31 07:33:33;;;;;;;6.33;4.63;;;23.80;91.30;;;;;;4998059;28;20592;-82
2022/07/31 07:35:59;;;;;;;5.90;5.00;;;24.10;90.10;;;;;;4999215;28;20447;-82
2022/07/31 07:38:26;;;;;;;5.30;4.40;;;24.30;89.30;;;;;;4998147;28;20446;-81
2022/07/31 07:40:52;;;;;;;4.67;4.27;;;24.40;88.40;;;;;;4999700;28;20440;-82
2022/07/31 07:43:20;;;;;;;4.83;4.33;;;24.50;87.90;;;;;;5000102;28;20470;-81
2022/07/31 07:45:48;;;;;;;5.00;4.50;;;24.80;86.70;;;;;;5001829;28;20452;-82
2022/07/31 07:48:14;;;;;;;4.40;4.10;;;25.00;85.80;;;;;;5008952;28;20514;-82
2022/07/31 07:50:41;;;;;;;5.17;4.70;;;24.90;85.50;;;;;;5004083;28;20435;-81
2022/07/31 07:53:08;;;;;;;6.83;6.27;;;24.70;85.10;;;;;;4998358;28;20519;-82
2022/07/31 07:55:34;;;;;;;5.40;4.90;;;24.80;85.30;;;;;;4999838;28;20536;-81
2022/07/31 07:58:01;;;;;;;5.43;4.70;;;24.90;84.40;;;;;;4998692;28;20443;-81
2022/07/31 08:00:29;;;;;;;7.23;5.20;;;24.70;84.80;;;;;;5000329;28;20440;-82
2022/07/31 08:02:56;;;;;;;7.00;5.07;;;24.40;86.30;;;;;;4999748;28;21019;-82
2022/07/31 08:05:23;;;;;;;5.50;5.00;;;24.40;85.70;;;;;;5004985;28;20463;-81
2022/07/31 08:07:49;;;;;;;4.40;4.00;;;24.70;85.30;;;;;;5000856;28;20439;-82
2022/07/31 08:10:18;;;;;;;5.80;5.30;;;25.10;83.20;;;;;;5000152;28;20557;-82
2022/07/31 08:12:45;;;;;;;4.93;4.53;;;24.90;82.80;;;;;;4999888;28;20999;-84
2022/07/31 08:15:12;;;;;;;6.17;4.10;;;24.90;83.20;;;;;;4992493;28;20444;-84
2022/07/31 08:17:40;;;;;;;6.33;4.70;;;24.80;83.30;;;;;;4992879;28;20448;-84
2022/07/31 08:20:08;;;;;;;4.90;4.60;;;25.00;82.40;;;;;;4999369;28;20491;-83
2022/07/31 08:22:34;;;;;;;5.83;4.53;;;25.30;81.80;;;;;;5016433;28;20455;-84
2022/07/31 08:25:01;;;;;;;5.53;5.00;;;25.40;80.20;;;;;;4993573;28;20454;-84
2022/07/31 08:27:29;;;;;;;5.87;5.37;;;25.90;80.20;;;;;;4992076;28;20565;-84
2022/07/31 08:29:58;;;;;;;5.57;5.07;;;25.90;77.60;;;;;;4991671;28;20520;-84
2022/07/31 08:32:26;;;;;;;5.13;4.63;;;26.10;77.40;;;;;;4990940;28;20463;-83
2022/07/31 08:34:55;;;;;;;5.10;4.70;;;26.10;76.80;;;;;;4992314;28;20448;-84
2022/07/31 08:37:22;;;;;;;5.30;4.80;;;26.20;75.10;;;;;;4992871;28;21261;-84
2022/07/31 08:39:50;;;;;;;4.90;4.50;;;26.30;74.50;;;;;;4992267;28;20494;-84
2022/07/31 08:42:18;;;;;;;5.13;4.57;;;27.10;73.30;;;;;;4990574;28;20445;-84
2022/07/31 08:44:46;;;;;;;7.10;4.30;;;27.70;68.90;;;;;;4991910;28;20460;-84
2022/07/31 08:47:16;;;;;;;4.50;4.20;;;28.40;67.90;;;;;;4991115;28;20522;-84
2022/07/31 08:49:44;;;;;;;6.90;4.23;;;28.70;64.70;;;;;;5003308;28;20477;-88
2022/07/31 08:52:19;;;;;;;4.43;4.03;;;28.60;65.80;;;;;;5014998;28;20439;-90
2022/07/31 08:54:50;;;;;;;3.70;3.40;;;31.00;60.50;;;;;;4998834;28;20442;-91
2022/07/31 08:57:20;;;;;;;3.93;3.53;;;33.10;54.50;;;;;;5000484;28;20432;-90
2022/07/31 08:59:51;;;;;;;5.07;3.43;;;34.60;49.60;;;;;;4998063;28;20448;-91
2022/07/31 09:02:19;;;;;;;4.27;3.80;;;34.10;47.70;;;;;;4993043;28;20490;-90
2022/07/31 09:04:48;;;;;;;3.33;3.13;;;35.40;46.70;;;;;;4998172;28;20465;-91
2022/07/31 09:11:00;;;;;;;;;;;;;;;;;;;;;
2022/07/31 09:16:30;;;;;;;4.57;3.30;;;38.70;36.90;;;;;;4997301;28;20447;-92
2022/07/31 09:19:46;;;;;;;4.40;3.53;;;38.70;37.20;;;;;;4994812;28;20435;-93
2022/07/31 09:26:33;;;;;;;3.13;2.90;;;37.60;36.80;;;;;;4996189;28;20456;-92
2022/07/31 09:29:33;;;;;;;3.50;3.10;;;38.40;36.30;;;;;;4996470;28;20467;-92
2022/07/31 09:32:38;;;;;;;2.90;2.53;;;38.10;34.30;;;;;;5013582;28;20435;-92
2022/07/31 09:35:38;;;;;;;2.67;2.47;;;38.50;34.00;;;;;;4999279;28;21085;-93
2022/07/31 09:38:40;;;;;;;3.30;3.00;;;39.70;31.10;;;;;;5010806;28;20455;-94
2022/07/31 09:41:18;;;;;;;2.60;2.40;;;40.30;30.20;;;;;;4996653;28;20471;-93
2022/07/31 09:44:05;;;;;;;3.00;2.80;;;41.30;29.40;;;;;;5004960;28;20474;-93
2022/07/31 09:47:32;;;;;;;3.40;2.73;;;42.00;28.50;;;;;;5005814;28;20464;-92
2022/07/31 09:50:09;;;;;;;3.60;2.60;;;41.90;28.40;;;;;;4992600;28;20511;-93
2022/07/31 09:55:17;;;;;;;6.03;3.07;;;43.00;27.50;;;;;;4152885;26;21105;-85
2022/07/31 09:57:53;;;;;;;4.77;3.40;;;42.20;27.70;;;;;;4975704;28;20441;-86
2022/07/31 10:00:20;;;;;;;2.40;2.20;;;41.10;28.20;;;;;;4971798;28;20543;-87
2022/07/31 10:02:49;;;;;;;3.60;2.87;;;42.20;28.20;;;;;;4973663;28;20468;-87
2022/07/31 10:05:17;;;;;;;2.93;2.60;;;44.20;27.00;;;;;;4972934;28;20930;-88
2022/07/31 10:07:46;;;;;;;2.80;2.10;;;43.90;26.20;;;;;;4973168;28;20452;-85
2022/07/31 10:10:14;;;;;;;2.63;2.43;;;43.70;25.90;;;;;;4973036;28;20436;-89
2022/07/31 10:12:42;;;;;;;2.50;2.30;;;43.00;26.70;;;;;;4975546;28;20461;-88
2022/07/31 10:15:15;;;;;;;4.70;2.93;;;42.20;26.90;;;;;;4976577;28;20440;-87
2022/07/31 10:17:46;;;;;;;3.10;2.27;;;42.00;27.60;;;;;;4986349;28;20420;-88
2022/07/31 10:26:08;;;;;;;2.40;1.90;;;45.70;24.60;;;;;;4803407;26;20453;-95
2022/07/31 10:28:38;;;;;;;2.70;2.50;;;45.20;24.70;;;;;;4981113;28;20441;-92
2022/07/31 10:31:12;;;;;;;3.67;1.97;;;45.50;24.40;;;;;;4975609;28;20482;-94
2022/07/31 10:33:43;;;;;;;2.97;2.77;;;46.00;24.60;;;;;;4975768;28;20461;-92
2022/07/31 10:36:19;;;;;;;2.30;2.10;;;46.20;23.60;;;;;;4970228;28;20445;-91
2022/07/31 10:38:54;;;;;;;4.10;2.50;;;45.60;24.00;;;;;;4973184;28;20528;-92
2022/07/31 10:41:32;;;;;;;2.30;2.10;;;45.00;24.50;;;;;;4965062;29;20477;-93
2022/07/31 10:44:13;;;;;;;2.83;2.53;;;45.60;24.30;;;;;;4963312;28;20504;-93
2022/07/31 10:46:40;;;;;;;2.73;2.20;;;45.40;24.10;;;;;;4975113;28;20438;-93
2022/07/31 10:49:07;;;;;;;3.70;2.50;;;45.70;24.00;;;;;;4972875;28;20553;-94
2022/07/31 10:51:48;;;;;;;6.03;2.93;;;45.50;23.90;;;;;;4978062;28;20469;-92
2022/07/31 10:54:15;;;;;;;2.70;2.50;;;44.90;24.30;;;;;;4967863;28;20536;-93
2022/07/31 10:56:54;;;;;;;4.50;2.20;;;44.70;24.40;;;;;;4966353;28;20510;-92
2022/07/31 10:59:28;;;;;;;3.00;2.70;;;45.20;24.00;;;;;;4961621;29;20477;-93
2022/07/31 11:01:54;;;;;;;2.93;2.27;;;43.20;24.90;;;;;;4966507;28;20525;-91
2022/07/31 11:04:31;;;;;;;3.50;2.30;;;41.60;26.30;;;;;;4967159;28;20449;-89
2022/07/31 11:07:00;;;;;;;2.57;2.37;;;40.40;27.40;;;;;;4960473;28;20449;-89
2022/07/31 11:09:28;;;;;;;3.50;2.30;;;38.80;28.30;;;;;;4959988;29;20448;-89
2022/07/31 11:11:56;;;;;;;2.60;2.30;;;37.70;29.70;;;;;;4959615;28;20445;-89
2022/07/31 11:14:33;;;;;;;2.80;2.50;;;37.60;30.20;;;;;;4954994;28;20853;-89
2022/07/31 11:17:00;;;;;;;4.13;2.13;;;39.20;29.40;;;;;;4959571;28;20441;-89
2022/07/31 11:19:37;;;;;;;4.43;2.50;;;40.90;27.80;;;;;;4958177;28;20512;-89
2022/07/31 11:22:11;;;;;;;2.30;2.10;;;41.10;26.90;;;;;;4954690;29;21013;-88
2022/07/31 11:24:38;;;;;;;3.40;2.57;;;39.80;27.80;;;;;;4953505;28;20939;-89
2022/07/31 11:27:05;;;;;;;2.43;2.23;;;38.00;29.10;;;;;;4957318;28;20508;-89
2022/07/31 11:29:34;;;;;;;2.40;2.20;;;37.40;30.40;;;;;;4961212;29;20443;-89
2022/07/31 11:32:13;;;;;;;2.77;2.57;;;36.90;30.80;;;;;;4968566;28;20831;-88
2022/07/31 11:34:46;;;;;;;2.87;2.60;;;36.40;31.80;;;;;;4969859;29;20721;-88
2022/07/31 11:37:17;;;;;;;4.23;2.87;;;36.80;32.60;;;;;;4961560;29;20441;-88
2022/07/31 11:39:44;;;;;;;2.70;2.30;;;37.70;31.30;;;;;;4955856;29;20484;-88
2022/07/31 11:42:11;;;;;;;4.70;3.20;;;37.30;31.50;;;;;;4954473;28;20449;-89
2022/07/31 11:44:47;;;;;;;3.00;2.80;;;37.90;30.60;;;;;;4957018;29;20462;-89
2022/07/31 11:47:14;;;;;;;2.77;2.57;;;36.70;31.40;;;;;;4955320;29;20826;-87
2022/07/31 11:49:42;;;;;;;4.40;2.70;;;36.10;32.30;;;;;;4954179;29;20447;-87
2022/07/31 11:52:11;;;;;;;3.83;2.67;;;36.80;32.00;;;;;;4968973;28;20447;-87
2022/07/31 11:54:39;;;;;;;2.77;2.57;;;36.80;31.80;;;;;;4963307;29;20495;-87
2022/07/31 11:57:06;;;;;;;2.70;2.50;;;36.40;32.20;;;;;;4952863;29;20539;-87
2022/07/31 11:59:34;;;;;;;2.97;2.60;;;35.80;32.70;;;;;;4952253;29;20488;-87
2022/07/31 12:02:05;;;;;;;6.20;3.00;;;35.70;33.70;;;;;;4954179;29;20442;-87
2022/07/31 12:04:32;;;;;;;2.40;1.93;;;37.20;31.80;;;;;;4950614;29;20536;-87
2022/07/31 12:07:00;;;;;;;3.90;3.47;;;38.10;30.50;;;;;;4952027;29;20452;-87
2022/07/31 12:09:27;;;;;;;3.60;2.70;;;39.20;29.80;;;;;;4952560;29;20590;-87
2022/07/31 12:11:56;;;;;;;2.50;2.30;;;40.80;29.00;;;;;;4954374;28;20469;-88
2022/07/31 12:14:33;;;;;;;2.20;2.00;;;42.40;26.90;;;;;;4953801;28;20989;-87
2022/07/31 12:17:00;;;;;;;3.27;2.97;;;41.50;26.60;;;;;;4953295;29;20460;-86
2022/07/31 12:19:28;;;;;;;2.33;1.90;;;39.30;28.30;;;;;;4951876;29;20892;-86
2022/07/31 12:21:55;;;;;;;2.57;2.37;;;38.00;29.70;;;;;;4958729;28;20432;-86
2022/07/31 12:24:22;;;;;;;2.60;2.07;;;40.40;29.20;;;;;;4978605;28;20479;-85
2022/07/31 12:26:50;;;;;;;2.20;2.00;;;41.40;28.00;;;;;;4963438;29;20456;-87
2022/07/31 12:29:19;;;;;;;2.70;2.40;;;41.40;27.30;;;;;;4956476;29;20445;-87
2022/07/31 12:31:48;;;;;;;2.63;2.43;;;40.40;28.30;;;;;;4955259;29;20450;-87
2022/07/31 12:34:26;;;;;;;4.20;2.37;;;38.40;29.50;;;;;;4953516;28;20468;-87
2022/07/31 12:37:00;;;;;;;2.40;2.13;;;37.10;31.30;;;;;;4955012;28;20448;-88
2022/07/31 12:39:27;;;;;;;3.50;2.43;;;37.20;30.30;;;;;;4955919;29;20451;-86
2022/07/31 12:41:54;;;;;;;3.03;2.70;;;36.10;31.80;;;;;;4955459;29;20908;-86
2022/07/31 12:44:22;;;;;;;2.60;2.40;;;35.80;32.70;;;;;;4955644;28;20834;-87
2022/07/31 12:46:50;;;;;;;2.50;2.30;;;35.60;33.60;;;;;;4952174;28;20454;-87
2022/07/31 12:49:18;;;;;;;3.00;2.20;;;36.00;33.20;;;;;;4954404;29;20486;-87
2022/07/31 12:51:44;;;;;;;4.60;2.67;;;35.60;33.90;;;;;;4954205;29;20455;-87
2022/07/31 12:54:12;;;;;;;2.70;2.30;;;34.90;34.40;;;;;;4953535;28;20484;-87
2022/07/31 12:56:41;;;;;;;3.80;2.73;;;34.20;35.40;;;;;;4956798;29;20464;-87
2022/07/31 12:59:08;;;;;;;2.77;2.20;;;33.50;36.90;;;;;;4968454;29;20452;-86
2022/07/31 13:01:37;;;;;;;3.00;2.70;;;32.90;38.20;;;;;;4972144;28;20474;-86
2022/07/31 13:04:05;;;;;;;4.10;3.23;;;32.30;39.10;;;;;;4962960;28;20459;-86
2022/07/31 13:06:32;;;;;;;3.50;3.00;;;31.80;40.10;;;;;;4952992;28;20449;-86
2022/07/31 13:08:59;;;;;;;3.90;2.57;;;32.50;40.00;;;;;;4954401;29;20461;-86
2022/07/31 13:11:27;;;;;;;3.13;2.33;;;32.50;39.10;;;;;;4952011;28;20449;-86
2022/07/31 13:13:55;;;;;;;3.33;2.93;;;32.30;39.80;;;;;;4957083;28;20805;-86
2022/07/31 13:16:22;;;;;;;3.97;2.20;;;32.00;40.30;;;;;;4953525;29;20457;-86
2022/07/31 13:18:50;;;;;;;2.53;2.33;;;32.80;39.80;;;;;;4952839;28;20795;-87
2022/07/31 13:21:17;;;;;;;2.63;2.43;;;34.80;37.10;;;;;;4951422;28;20486;-87